Time;durP1;ratioP1;P1;durP2;ratioP2;P2;SDS_P1;SDS_P2;PMS_P1;PMS_P2;Temp;Humidity;BMP_temperature;BMP_pressure;BME280_temperature;BME280_humidity;BME280_pressure;Samples;Min_cycle;Max_cycle;Signal;HPM_P1;HPM_P2
2024/01/27 00:01:30;;;;;;;15.33;6.43;;;1.70;99.90;;;2.27;100.00;99649.09;10328500;28;20248;-60
2024/01/27 00:06:34;;;;;;;47.70;8.07;;;1.60;99.90;;;2.07;100.00;99650.16;10325043;28;20222;-60
2024/01/27 00:11:37;;;;;;;43.20;7.60;;;1.50;99.90;;;2.07;100.00;99651.78;10325265;28;20234;-60
2024/01/27 00:16:41;;;;;;;11.30;5.93;;;1.60;99.90;;;1.92;100.00;99648.34;10331137;28;20230;-61
2024/01/27 00:21:45;;;;;;;37.17;7.70;;;1.40;99.90;;;2.07;100.00;99659.34;10327862;28;20231;-61
2024/01/27 00:26:48;;;;;;;26.37;5.47;;;1.50;99.90;;;2.04;100.00;99664.94;10325782;28;20794;-58
2024/01/27 00:31:54;;;;;;;18.70;5.80;;;1.40;99.90;;;2.03;100.00;99663.09;10323472;28;20325;-61
2024/01/27 00:36:57;;;;;;;19.57;5.67;;;1.50;99.90;;;2.10;100.00;99670.69;10326077;28;20228;-60
2024/01/27 00:42:00;;;;;;;14.50;6.10;;;1.50;99.90;;;1.97;100.00;99672.47;10330487;28;20235;-60
2024/01/27 00:47:05;;;;;;;266.37;18.93;;;1.40;99.90;;;1.67;100.00;99674.75;10349876;28;20230;-61
2024/01/27 00:52:08;;;;;;;34.80;7.30;;;1.20;99.90;;;1.62;100.00;99676.69;10364293;28;20222;-61
2024/01/27 00:57:12;;;;;;;56.00;8.40;;;1.10;99.90;;;1.78;100.00;99687.94;10365537;28;20697;-61
2024/01/27 01:02:16;;;;;;;41.07;7.27;;;1.20;99.90;;;1.64;100.00;99680.31;10366765;28;20269;-59
2024/01/27 01:07:19;;;;;;;91.43;8.53;;;1.00;99.90;;;1.65;100.00;99687.16;10362874;28;20233;-62
2024/01/27 01:12:23;;;;;;;30.63;6.27;;;1.00;99.90;;;1.41;100.00;99690.13;10364775;28;20244;-61
2024/01/27 01:17:28;;;;;;;72.70;8.83;;;0.80;99.90;;;1.46;100.00;99690.66;10366088;28;20236;-60
2024/01/27 01:22:31;;;;;;;15.80;5.50;;;0.80;99.90;;;1.34;100.00;99697.63;10368905;28;20278;-61
2024/01/27 01:27:35;;;;;;;30.00;6.37;;;0.80;99.90;;;1.25;100.00;99702.44;10371310;28;20540;-61
2024/01/27 01:32:39;;;;;;;40.83;6.93;;;0.70;99.90;;;1.20;100.00;99706.03;10363464;28;20228;-62
2024/01/27 01:37:42;;;;;;;17.13;5.20;;;0.60;99.90;;;1.39;100.00;99708.28;10325759;28;20262;-62
2024/01/27 01:42:52;;;;;;;21.43;6.33;;;0.70;99.90;;;1.35;100.00;99702.88;10327514;28;20622;-58
2024/01/27 01:47:56;;;;;;;10.03;6.10;;;0.70;99.90;;;1.18;100.00;99699.03;10334091;28;20613;-59
2024/01/27 01:53:00;;;;;;;8.27;4.70;;;0.60;99.90;;;1.05;100.00;99701.63;10331745;28;20250;-59
2024/01/27 01:58:04;;;;;;;5.40;4.90;;;0.50;99.90;;;1.01;100.00;99694.41;10334599;28;20318;-64
2024/01/27 02:03:13;;;;;;;15.77;6.33;;;0.40;99.90;;;1.11;100.00;99702.38;10333228;28;20616;-61
2024/01/27 02:08:16;;;;;;;17.53;6.80;;;0.50;99.90;;;1.13;100.00;99716.06;10330192;28;20356;-61
2024/01/27 02:13:21;;;;;;;17.87;7.63;;;0.60;99.90;;;1.16;100.00;99723.09;10332136;28;20231;-60
2024/01/27 02:18:25;;;;;;;73.90;10.33;;;0.60;99.90;;;1.17;100.00;99747.56;10332276;28;20251;-61
2024/01/27 02:23:29;;;;;;;38.23;7.40;;;0.50;99.90;;;0.94;100.00;99752.25;10333699;28;20341;-61
2024/01/27 02:28:35;;;;;;;28.37;7.73;;;0.40;99.90;;;1.03;100.00;99760.94;10330097;28;20231;-61
2024/01/27 02:33:38;;;;;;;41.03;10.23;;;0.50;99.90;;;0.62;100.00;99774.28;10329262;28;20222;-61
2024/01/27 02:38:42;;;;;;;8.17;7.17;;;0.10;99.90;;;0.64;100.00;99777.91;10332078;28;20230;-60
2024/01/27 02:43:46;;;;;;;18.07;9.07;;;0.10;99.90;;;0.71;100.00;99787.13;10331258;28;20230;-61
2024/01/27 02:48:49;;;;;;;11.30;6.40;;;0.20;99.90;;;0.80;100.00;99789.22;10332341;28;20231;-61
2024/01/27 02:53:53;;;;;;;23.83;7.07;;;0.20;99.90;;;0.79;100.00;99801.59;10327781;28;20235;-60
2024/01/27 02:58:57;;;;;;;166.20;14.47;;;0.20;99.90;;;0.82;100.00;99797.84;10364047;28;20266;-60
2024/01/27 03:04:01;;;;;;;28.90;7.30;;;0.20;99.90;;;0.63;100.00;99802.19;10326555;28;20794;-61
2024/01/27 03:09:04;;;;;;;7.13;6.40;;;0.10;99.90;;;0.66;100.00;99805.09;10372941;28;20327;-60
2024/01/27 03:14:10;;;;;;;6.63;6.03;;;0.10;99.90;;;0.59;100.00;99806.63;10373999;28;20620;-63
2024/01/27 03:19:13;;;;;;;32.93;7.33;;;0.10;99.90;;;0.65;100.00;99807.38;10380663;28;20238;-59
2024/01/27 03:24:17;;;;;;;63.70;8.77;;;0.10;99.90;;;0.62;100.00;99801.97;10378367;28;20688;-61
2024/01/27 03:29:21;;;;;;;15.93;5.63;;;0.10;99.90;;;0.44;100.00;99803.97;10367143;28;20239;-61
2024/01/27 03:34:24;;;;;;;5.70;5.10;;;-0.10;99.90;;;0.42;100.00;99812.00;10330497;28;20279;-61
2024/01/27 03:39:28;;;;;;;4.77;4.47;;;-0.10;99.90;;;0.51;100.00;99807.25;10329846;28;21300;-59
2024/01/27 03:44:33;;;;;;;5.87;5.37;;;-0.10;99.90;;;0.42;100.00;99807.88;10327783;28;20305;-59
2024/01/27 03:49:36;;;;;;;4.90;4.50;;;-0.20;99.90;;;0.26;100.00;99804.13;10325712;28;21657;-59
2024/01/27 03:54:39;;;;;;;5.73;5.13;;;-0.30;99.90;;;0.21;100.00;99810.19;10323619;28;20219;-60
2024/01/27 03:59:44;;;;;;;5.83;5.33;;;-0.30;99.90;;;0.28;100.00;99816.88;10326599;28;20231;-59
2024/01/27 04:04:47;;;;;;;5.40;4.90;;;-0.30;99.90;;;0.28;100.00;99817.78;10322447;28;20735;-59
2024/01/27 04:09:50;;;;;;;5.37;4.97;;;-0.30;99.90;;;0.38;100.00;99819.88;10326765;28;20229;-59
2024/01/27 04:14:56;;;;;;;5.40;4.43;;;-0.30;99.90;;;0.38;100.00;99820.78;10322439;28;20297;-59
2024/01/27 04:19:59;;;;;;;5.07;4.67;;;-0.20;99.90;;;0.41;100.00;99821.19;10323173;28;20230;-59
2024/01/27 04:25:04;;;;;;;5.93;5.13;;;-0.20;99.90;;;0.28;100.00;99824.44;10368906;28;20674;-59
2024/01/27 04:30:12;;;;;;;6.60;6.00;;;-0.30;99.90;;;0.28;100.00;99830.38;10336090;28;20230;-60
2024/01/27 04:35:16;;;;;;;16.27;6.57;;;-0.40;99.90;;;0.29;100.00;99826.25;10327128;28;20226;-59
2024/01/27 04:40:19;;;;;;;13.37;6.43;;;-0.40;99.90;;;0.14;100.00;99832.72;10321018;28;20231;-58
2024/01/27 04:45:24;;;;;;;8.47;6.33;;;-0.50;99.90;;;-0.06;100.00;99832.66;10323235;28;20223;-60
2024/01/27 04:50:27;;;;;;;6.87;5.17;;;-0.60;99.90;;;0.05;100.00;99844.09;10329346;28;20321;-59
2024/01/27 04:55:30;;;;;;;6.90;5.33;;;-0.60;99.90;;;-0.03;100.00;99845.59;10324413;28;20252;-59
2024/01/27 05:00:35;;;;;;;13.20;7.43;;;-0.60;99.90;;;-0.20;100.00;99851.00;10321900;28;20340;-59
2024/01/27 05:05:40;;;;;;;12.17;7.90;;;-0.70;99.90;;;-0.11;100.00;99848.78;10355444;28;20708;-59
2024/01/27 05:10:43;;;;;;;9.60;8.20;;;-0.60;99.90;;;0.02;100.00;99846.22;10324058;28;20237;-59
2024/01/27 05:15:49;;;;;;;13.87;7.90;;;-0.50;99.90;;;0.04;100.00;99845.72;10323674;28;20229;-59
2024/01/27 05:20:53;;;;;;;16.87;15.47;;;-0.50;99.90;;;-0.10;100.00;99848.94;10334332;28;20233;-59
2024/01/27 05:25:56;;;;;;;14.53;13.33;;;-0.70;99.90;;;-0.02;100.00;99845.81;10331266;28;20235;-59
2024/01/27 05:31:00;;;;;;;10.27;9.27;;;-0.60;99.90;;;-0.01;100.00;99866.81;10330618;28;20230;-59
2024/01/27 05:36:04;;;;;;;9.30;8.40;;;-0.60;99.90;;;-0.05;100.00;99864.63;10329050;28;20235;-61
2024/01/27 05:41:07;;;;;;;10.90;9.27;;;-0.60;99.90;;;-0.09;100.00;99873.34;10330325;28;20254;-59
2024/01/27 05:46:12;;;;;;;7.53;6.83;;;-0.60;99.90;;;0.15;100.00;99869.75;10329789;28;20219;-60
2024/01/27 05:51:15;;;;;;;11.47;8.33;;;-0.60;99.90;;;0.07;100.00;99877.88;10326600;28;20230;-59
2024/01/27 05:56:20;;;;;;;15.57;8.30;;;-0.60;99.90;;;0.05;100.00;99877.69;10328453;28;20273;-60
2024/01/27 06:01:24;;;;;;;9.00;7.20;;;-0.50;99.90;;;-0.09;100.00;99878.38;10328570;28;20233;-60
2024/01/27 06:06:28;;;;;;;26.60;10.63;;;-0.60;99.90;;;-0.29;100.00;99882.41;10328277;28;20227;-60
2024/01/27 06:11:31;;;;;;;11.60;10.07;;;-0.80;99.90;;;-0.38;100.00;99886.25;10331618;28;20288;-60
2024/01/27 06:16:35;;;;;;;36.37;13.17;;;-0.90;99.90;;;-0.37;100.00;99883.94;10327472;28;20230;-60
2024/01/27 06:21:38;;;;;;;11.73;9.20;;;-0.90;99.90;;;-0.40;100.00;99880.09;10329468;28;20599;-60
2024/01/27 06:26:42;;;;;;;8.93;7.87;;;-0.90;99.90;;;-0.12;100.00;99872.97;10322550;28;20294;-61
2024/01/27 06:31:46;;;;;;;9.30;8.37;;;-0.80;99.90;;;0.10;100.00;99890.84;10327450;28;20636;-60
2024/01/27 06:36:50;;;;;;;10.50;7.40;;;-0.60;99.90;;;0.01;100.00;99885.53;10324937;28;20372;-61
2024/01/27 06:41:53;;;;;;;8.47;7.27;;;-0.60;99.90;;;0.05;100.00;99882.69;10328006;28;20232;-59
2024/01/27 06:46:57;;;;;;;7.83;7.10;;;-0.50;99.90;;;-0.04;100.00;99887.44;10320988;28;20219;-60
2024/01/27 06:52:01;;;;;;;7.63;6.93;;;-0.60;99.90;;;-0.01;100.00;99881.91;10327383;28;20230;-60
2024/01/27 06:57:04;;;;;;;7.03;6.40;;;-0.50;99.90;;;0.04;100.00;99895.09;10368754;28;20300;-60
2024/01/27 07:02:13;;;;;;;7.17;6.47;;;-0.50;99.90;;;-0.03;100.00;99895.88;10369458;28;20249;-60
2024/01/27 07:07:16;;;;;;;9.13;6.87;;;-0.60;99.90;;;-0.07;100.00;99897.09;10367266;28;20223;-60
2024/01/27 07:12:20;;;;;;;8.67;7.73;;;-0.70;99.90;;;-0.02;100.00;99903.63;10366750;28;20239;-60
2024/01/27 07:17:24;;;;;;;8.97;7.63;;;-0.70;99.90;;;0.06;100.00;99904.66;10373377;28;20233;-60
2024/01/27 07:22:27;;;;;;;10.83;8.13;;;-0.60;99.90;;;0.05;100.00;99912.88;10369060;28;20239;-60
2024/01/27 07:27:31;;;;;;;9.10;8.20;;;-0.60;99.90;;;-0.06;100.00;99908.03;10367381;28;20630;-60
2024/01/27 07:32:35;;;;;;;10.47;8.97;;;-0.80;99.90;;;0.02;100.00;99917.50;10362573;28;20236;-60
2024/01/27 07:37:39;;;;;;;11.63;7.97;;;-0.70;99.90;;;0.20;100.00;99913.94;10365030;28;20276;-60
2024/01/27 07:42:42;;;;;;;11.10;8.27;;;-0.40;99.90;;;0.37;100.00;99914.56;10362635;28;20660;-60
2024/01/27 07:47:46;;;;;;;10.23;8.27;;;-0.30;99.90;;;0.40;100.00;99912.44;10364373;28;20358;-61
2024/01/27 07:52:50;;;;;;;9.37;8.47;;;-0.20;99.90;;;0.41;100.00;99911.72;10346035;28;20230;-60
2024/01/27 07:57:53;;;;;;;10.73;8.90;;;-0.10;99.90;;;0.67;100.00;99906.63;10321670;28;20229;-60
2024/01/27 08:02:57;;;;;;;10.93;9.53;;;0.10;99.90;;;0.87;100.00;99917.63;10320597;28;20226;-59
2024/01/27 08:08:00;;;;;;;11.00;8.80;;;0.40;99.90;;;1.00;100.00;99925.13;10324988;28;20240;-60
2024/01/27 08:13:04;;;;;;;8.63;7.83;;;0.40;99.90;;;0.96;100.00;99915.38;10355482;28;20224;-60
2024/01/27 08:18:09;;;;;;;8.47;7.43;;;0.40;99.90;;;1.06;100.00;99909.88;10374595;28;20635;-60
2024/01/27 08:23:12;;;;;;;7.23;6.57;;;0.50;99.90;;;1.20;100.00;99922.59;10371438;28;20222;-60
2024/01/27 08:28:15;;;;;;;7.90;6.80;;;0.80;99.90;;;1.56;100.00;99915.34;10370368;22;20231;-62
2024/01/27 08:33:20;;;;;;;10.53;8.27;;;1.10;99.90;;;2.10;100.00;99922.00;10333102;28;20309;-61
2024/01/27 08:38:23;;;;;;;9.37;7.50;;;1.50;99.90;;;2.46;100.00;99910.44;10312622;28;20235;-62
2024/01/27 08:43:26;;;;;;;8.93;8.03;;;1.70;99.90;;;2.62;100.00;99911.56;10314014;28;20242;-62
2024/01/27 08:48:31;;;;;;;9.87;8.87;;;1.90;99.90;;;2.87;100.00;99904.44;10296492;28;20313;-61
2024/01/27 08:53:34;;;;;;;9.63;8.63;;;2.30;99.90;;;2.91;100.00;99899.03;10292989;28;20716;-61
2024/01/27 08:58:38;;;;;;;8.90;8.07;;;2.40;99.90;;;3.24;100.00;99894.56;10288681;28;20228;-61
2024/01/27 09:03:42;;;;;;;9.03;8.07;;;2.50;99.90;;;3.60;100.00;99882.78;10294904;28;20235;-61
2024/01/27 09:08:46;;;;;;;10.13;8.27;;;3.00;99.90;;;3.54;100.00;99879.56;10289265;28;20262;-61
2024/01/27 09:13:51;;;;;;;9.30;8.33;;;3.00;99.90;;;4.00;100.00;99858.69;10295321;28;20240;-62
2024/01/27 09:18:56;;;;;;;9.43;8.33;;;3.40;99.90;;;4.09;100.00;99869.84;10293892;28;22540;-62
2024/01/27 09:24:01;;;;;;;9.23;8.27;;;3.50;99.90;;;4.19;100.00;99861.69;10293484;28;20238;-61
2024/01/27 09:29:04;;;;;;;10.57;8.80;;;3.60;99.90;;;4.30;100.00;99866.34;10282012;28;20229;-64
2024/01/27 09:34:09;;;;;;;9.97;8.97;;;3.80;99.90;;;4.53;100.00;99865.53;10291312;28;20335;-64
2024/01/27 09:39:12;;;;;;;10.47;9.40;;;4.10;99.90;;;4.78;100.00;99867.56;10297304;28;20895;-64
2024/01/27 09:44:19;;;;;;;10.50;9.60;;;4.30;99.90;;;4.99;100.00;99879.16;10300987;28;20227;-64
2024/01/27 09:49:26;;;;;;;10.63;9.70;;;4.40;99.90;;;5.10;100.00;99882.91;10310354;28;20231;-64
2024/01/27 09:54:29;;;;;;;10.33;9.43;;;4.50;99.90;;;5.09;100.00;99893.75;10309872;28;20263;-64
2024/01/27 09:59:34;;;;;;;11.23;10.13;;;4.60;99.90;;;5.26;100.00;99888.91;10301777;28;20667;-64
2024/01/27 10:04:39;;;;;;;10.33;9.27;;;4.70;99.90;;;5.33;100.00;99901.56;10314124;28;20394;-63
2024/01/27 10:09:43;;;;;;;11.37;10.30;;;4.80;99.90;;;5.38;100.00;99918.19;10312639;28;20254;-64
2024/01/27 10:14:48;;;;;;;10.80;9.77;;;4.80;99.90;;;5.54;100.00;99919.84;10307105;28;20278;-64
2024/01/27 10:20:03;;;;;;;14.73;10.30;;;5.00;99.90;;;5.59;100.00;99922.16;10303388;28;20729;-64
2024/01/27 10:25:08;;;;;;;11.63;10.43;;;5.00;99.90;;;5.74;100.00;99917.84;10302538;28;20234;-62
2024/01/27 10:30:18;;;;;;;12.37;10.90;;;5.20;99.90;;;5.88;100.00;99915.19;10298121;28;20235;-63
2024/01/27 10:35:23;;;;;;;11.63;9.30;;;5.40;99.90;;;6.04;98.80;99910.19;10299001;28;20595;-62
2024/01/27 10:40:27;;;;;;;12.43;11.33;;;5.50;99.90;;;6.36;100.00;99904.19;10298226;28;20575;-63
2024/01/27 10:45:37;;;;;;;11.47;9.43;;;5.70;99.90;;;6.52;98.70;99905.06;10302571;28;20227;-63
2024/01/27 10:50:42;;;;;;;10.93;9.00;;;5.90;99.90;;;6.60;98.49;99909.31;10318112;28;20762;-63
2024/01/27 10:55:48;;;;;;;9.90;8.17;;;6.00;99.90;;;6.55;97.34;99897.75;10294166;28;20239;-62
2024/01/27 11:00:53;;;;;;;11.40;7.03;;;6.00;99.90;;;6.58;91.48;99887.03;10296630;28;20239;-63
2024/01/27 11:05:59;;;;;;;8.30;6.73;;;6.00;99.90;;;6.66;94.42;99882.00;10296528;28;20255;-63
2024/01/27 11:11:04;;;;;;;7.67;5.47;;;6.20;99.90;;;6.79;82.82;99881.66;10257778;28;20263;-63
2024/01/27 11:16:16;;;;;;;7.50;4.73;;;6.20;99.90;;;6.98;85.39;99893.03;10258764;28;20228;-63
2024/01/27 11:21:20;;;;;;;6.87;4.50;;;6.40;99.90;;;6.93;85.85;99878.94;10257094;28;20331;-63
2024/01/27 11:26:25;;;;;;;7.57;4.60;;;6.30;99.90;;;6.74;79.65;99865.94;10254973;28;20228;-63
2024/01/27 11:31:29;;;;;;;7.20;4.90;;;6.20;99.90;;;6.99;87.08;99838.00;10261632;28;20235;-62
2024/01/27 11:36:34;;;;;;;9.57;5.67;;;6.40;99.90;;;6.97;84.03;99831.84;10256747;28;20387;-63
2024/01/27 11:41:39;;;;;;;8.97;5.00;;;6.40;99.90;;;7.20;86.21;99836.72;10258588;28;20952;-63
2024/01/27 11:46:42;;;;;;;6.33;5.03;;;6.50;99.90;;;7.36;82.13;99818.84;10253765;28;20232;-63
2024/01/27 11:51:47;;;;;;;7.87;4.60;;;6.70;99.90;;;7.27;82.67;99807.72;10256740;28;20328;-63
2024/01/27 11:56:50;;;;;;;8.37;5.30;;;6.70;99.90;;;7.23;82.23;99804.88;10251286;28;20224;-63
2024/01/27 12:01:54;;;;;;;11.53;6.23;;;6.60;99.90;;;7.12;83.75;99807.06;10252114;28;20228;-63
2024/01/27 12:06:58;;;;;;;8.70;5.07;;;6.60;99.90;;;7.59;80.02;99809.34;10254151;28;20227;-62
2024/01/27 12:12:01;;;;;;;7.10;4.23;;;7.00;99.90;;;7.52;78.13;99786.56;10273537;28;20763;-63
2024/01/27 12:17:05;;;;;;;6.03;4.80;;;6.90;99.90;;;7.36;75.72;99775.63;10289995;28;20306;-62
2024/01/27 12:22:25;;;;;;;8.20;5.10;;;6.80;99.90;;;7.72;76.08;99769.81;10298825;28;20746;-63
2024/01/27 12:27:29;;;;;;;5.90;5.13;;;7.10;99.90;;;7.53;78.12;99767.13;10296628;28;20661;-63
2024/01/27 12:32:32;;;;;;;8.17;5.03;;;7.00;99.90;;;7.70;76.44;99771.31;10268120;28;20230;-63
2024/01/27 12:37:37;;;;;;;5.77;4.87;;;7.10;99.90;;;7.46;79.25;99768.13;10288910;28;20463;-63
2024/01/27 12:42:40;;;;;;;10.30;5.03;;;6.90;99.90;;;7.49;77.37;99765.91;10291422;28;20240;-63
2024/01/27 12:47:44;;;;;;;7.60;4.37;;;6.90;99.90;;;7.52;79.58;99768.75;10297732;28;20239;-63
2024/01/27 12:52:48;;;;;;;7.07;4.20;;;6.80;99.90;;;7.40;75.96;99758.25;10297649;28;20228;-63
2024/01/27 12:57:51;;;;;;;5.43;4.23;;;6.70;99.90;;;7.55;78.77;99753.78;10289635;28;20595;-64
2024/01/27 13:02:55;;;;;;;6.43;4.50;;;6.90;99.90;;;7.64;76.30;99742.00;10297920;28;20232;-63
2024/01/27 13:07:59;;;;;;;6.17;3.90;;;6.90;99.90;;;7.78;72.36;99747.53;10297732;28;20236;-63
2024/01/27 13:13:04;;;;;;;5.47;4.17;;;7.00;99.90;;;7.71;72.70;99740.03;10293554;28;20234;-63
2024/01/27 13:18:08;;;;;;;5.73;3.83;;;7.00;99.90;;;7.97;70.64;99734.97;10289467;28;20769;-63
2024/01/27 13:23:13;;;;;;;5.60;3.80;;;7.20;99.90;;;7.90;70.38;99741.13;10303239;28;20350;-63
2024/01/27 13:28:16;;;;;;;5.43;3.80;;;7.20;99.90;;;7.98;72.02;99732.53;10300772;28;20707;-63
2024/01/27 13:33:20;;;;;;;5.07;3.70;;;7.20;99.90;;;8.26;68.85;99745.41;10300152;28;20235;-63
2024/01/27 13:38:25;;;;;;;5.67;4.53;;;7.40;99.90;;;8.13;68.12;99749.34;10302579;28;20675;-63
2024/01/27 13:43:29;;;;;;;9.00;3.90;;;7.40;99.90;;;8.09;68.75;99742.13;10304347;28;20277;-63
2024/01/27 13:48:32;;;;;;;6.00;4.17;;;7.40;99.90;;;8.25;69.82;99739.44;10306068;28;20227;-64
2024/01/27 13:53:37;;;;;;;6.77;4.50;;;7.50;99.90;;;7.98;74.87;99749.47;10308625;28;20729;-63
2024/01/27 13:58:49;;;;;;;6.37;4.00;;;7.30;99.90;;;8.00;73.20;99755.63;10302021;28;20238;-63
2024/01/27 14:03:53;;;;;;;9.90;6.10;;;7.20;99.90;;;8.26;70.18;99732.69;10308091;28;20246;-64
2024/01/27 14:08:58;;;;;;;7.17;4.53;;;7.40;99.90;;;8.29;69.23;99732.97;10299961;28;20226;-63
2024/01/27 14:14:01;;;;;;;5.87;3.60;;;7.60;99.90;;;8.11;73.50;99722.81;10294004;28;20293;-64
2024/01/27 14:19:05;;;;;;;5.43;3.83;;;7.40;99.90;;;8.02;75.12;99714.28;10300437;28;20227;-63
2024/01/27 14:24:10;;;;;;;5.87;3.87;;;7.30;99.90;;;8.03;78.07;99712.63;10297457;28;20226;-62
2024/01/27 14:29:13;;;;;;;6.33;3.80;;;7.20;99.90;;;8.03;74.31;99708.44;10300217;28;20617;-63
2024/01/27 14:34:16;;;;;;;6.57;3.73;;;7.30;99.90;;;7.96;75.64;99695.88;10300688;28;20626;-66
2024/01/27 14:39:21;;;;;;;6.33;3.70;;;7.20;99.90;;;8.06;73.04;99698.53;10313466;28;20232;-63
2024/01/27 14:44:24;;;;;;;6.93;3.87;;;7.30;99.90;;;8.12;73.70;99699.13;10289077;28;20601;-64
2024/01/27 14:49:28;;;;;;;4.47;4.07;;;7.30;99.90;;;8.06;73.89;99701.09;10289430;28;20227;-63
2024/01/27 14:54:33;;;;;;;6.43;4.00;;;7.30;99.90;;;8.44;69.80;99706.47;10295383;28;20227;-63
2024/01/27 14:59:38;;;;;;;6.85;4.25;;;7.50;99.90;;;8.23;69.57;99704.38;10286727;28;20231;-63
2024/01/27 15:04:42;;;;;;;12.87;7.67;;;7.40;99.90;;;7.96;73.78;99700.06;10286571;28;20231;-63
2024/01/27 15:09:47;;;;;;;13.25;7.40;;;7.20;99.90;;;7.74;75.34;99697.09;10294153;28;20226;-63
2024/01/27 15:14:50;;;;;;;9.07;5.38;;;6.90;99.90;;;7.76;76.26;99705.78;10327634;28;20652;-62
2024/01/27 15:19:53;;;;;;;8.13;5.70;;;6.90;99.90;;;7.61;78.61;99708.63;10327027;28;20262;-63
2024/01/27 15:24:58;;;;;;;7.97;5.97;;;6.80;99.90;;;7.41;80.06;99709.19;10326160;28;20234;-63
2024/01/27 15:30:02;;;;;;;6.00;5.00;;;6.60;99.90;;;7.55;77.42;99692.72;10323464;28;20227;-63
2024/01/27 15:35:06;;;;;;;7.37;5.27;;;6.60;99.90;;;7.44;78.78;99688.25;10316932;28;20305;-63
2024/01/27 15:40:12;;;;;;;5.27;4.57;;;6.50;99.90;;;7.20;81.36;99695.22;10317636;28;20322;-62
2024/01/27 15:45:16;;;;;;;6.07;4.93;;;6.30;99.90;;;7.03;82.78;99692.63;10316589;28;20323;-64
2024/01/27 15:50:21;;;;;;;5.37;4.53;;;6.10;99.90;;;6.54;84.65;99697.84;10315727;28;20643;-63
2024/01/27 15:55:27;;;;;;;5.87;3.90;;;5.80;99.90;;;6.26;86.24;99695.00;10307694;28;20229;-63
2024/01/27 16:00:30;;;;;;;6.13;4.67;;;5.50;99.90;;;6.06;89.24;99697.09;10307713;28;20506;-64
2024/01/27 16:05:34;;;;;;;4.67;4.27;;;5.30;99.90;;;5.81;89.68;99694.53;10310186;28;20309;-63
2024/01/27 16:10:38;;;;;;;5.20;4.57;;;5.10;99.90;;;5.67;91.49;99701.44;10308590;28;20242;-63
2024/01/27 16:15:42;;;;;;;7.20;4.40;;;4.90;99.90;;;5.50;93.44;99718.28;10309454;28;20733;-63
2024/01/27 16:20:49;;;;;;;5.43;4.53;;;4.80;99.90;;;5.24;94.13;99717.13;10318247;28;20226;-64
2024/01/27 16:25:54;;;;;;;6.30;5.43;;;4.50;99.90;;;4.93;94.73;99734.97;10329015;28;20392;-63
2024/01/27 16:30:57;;;;;;;7.27;6.30;;;4.20;99.90;;;4.83;96.03;99733.78;10330755;28;20234;-64
2024/01/27 16:36:00;;;;;;;7.47;5.90;;;4.10;99.90;;;4.68;96.13;99733.00;10315429;28;20385;-62
2024/01/27 16:41:05;;;;;;;6.73;4.87;;;3.90;99.90;;;4.41;95.91;99729.25;10318896;28;20223;-64
2024/01/27 16:46:08;;;;;;;4.57;3.90;;;3.60;99.90;;;4.31;96.51;99738.16;10329942;28;20226;-62
2024/01/27 16:51:12;;;;;;;6.17;4.23;;;3.50;99.90;;;4.11;96.41;99739.38;10313742;28;20284;-63
2024/01/27 16:56:17;;;;;;;5.73;4.90;;;3.40;99.90;;;3.96;97.38;99730.97;10333240;28;20265;-62
2024/01/27 17:01:20;;;;;;;7.20;6.50;;;3.30;99.90;;;3.86;98.40;99743.28;10318262;28;20235;-62
2024/01/27 17:06:24;;;;;;;7.67;6.13;;;3.20;99.90;;;3.69;99.29;99748.97;10324778;28;20230;-62
2024/01/27 17:11:28;;;;;;;6.73;6.03;;;3.00;99.90;;;3.59;99.12;99746.09;10320808;28;20231;-63
2024/01/27 17:16:31;;;;;;;11.37;9.83;;;2.90;99.90;;;3.38;99.49;99749.63;10320096;28;20689;-63
2024/01/27 17:21:34;;;;;;;10.33;8.47;;;2.80;99.90;;;3.28;99.35;99746.72;10331733;28;20234;-63
2024/01/27 17:26:39;;;;;;;9.07;7.40;;;2.60;99.90;;;3.07;100.00;99756.16;10339591;28;20449;-62
2024/01/27 17:31:42;;;;;;;7.20;6.60;;;2.50;99.90;;;3.03;99.68;99759.03;10327394;28;20693;-62
2024/01/27 17:36:45;;;;;;;7.93;7.20;;;2.40;99.90;;;2.97;100.00;99772.56;10321475;28;20235;-63
2024/01/27 17:41:50;;;;;;;9.17;6.30;;;2.40;99.90;;;3.00;100.00;99773.81;10292026;28;20234;-63
2024/01/27 17:46:53;;;;;;;6.87;6.23;;;2.30;99.90;;;2.90;100.00;99781.06;10292625;28;20753;-62
2024/01/27 17:51:56;;;;;;;9.10;8.10;;;2.30;99.90;;;2.75;100.00;99785.22;10294173;28;20234;-64
2024/01/27 17:57:03;;;;;;;9.40;8.20;;;2.20;99.90;;;2.59;100.00;99777.44;10296994;28;20230;-63
2024/01/27 18:02:07;;;;;;;8.27;6.93;;;2.00;99.90;;;2.54;100.00;99780.13;10295758;28;20250;-64
2024/01/27 18:07:10;;;;;;;8.67;7.63;;;1.90;99.90;;;2.44;100.00;99780.66;10297814;28;20680;-64
2024/01/27 18:12:15;;;;;;;9.57;8.47;;;1.80;99.90;;;2.36;100.00;99791.47;10292085;28;20235;-64
2024/01/27 18:17:18;;;;;;;6.83;6.23;;;1.80;99.90;;;2.33;100.00;99794.53;10292683;28;20249;-63
2024/01/27 18:22:21;;;;;;;7.13;5.87;;;1.60;99.90;;;1.96;100.00;99806.84;10293281;28;20715;-60
2024/01/27 18:27:25;;;;;;;7.47;6.77;;;1.40;99.90;;;1.85;100.00;99812.19;10294224;28;20237;-64
2024/01/27 18:32:29;;;;;;;7.30;6.63;;;1.30;99.90;;;1.85;100.00;99819.75;10320194;28;20230;-64
2024/01/27 18:37:33;;;;;;;8.27;7.07;;;1.30;99.90;;;1.80;100.00;99822.63;10295693;28;20318;-64
2024/01/27 18:42:37;;;;;;;8.57;6.13;;;1.20;99.90;;;1.74;100.00;99824.34;10284921;28;20306;-64
2024/01/27 18:47:42;;;;;;;25.30;14.67;;;1.20;99.90;;;1.62;100.00;99822.88;10299182;28;20726;-64
2024/01/27 18:52:53;;;;;;;14.47;10.53;;;1.10;99.90;;;1.55;100.00;99820.31;10291756;28;20235;-64
2024/01/27 18:57:57;;;;;;;10.07;8.10;;;1.00;99.90;;;1.53;100.00;99819.22;10290638;28;20258;-64
2024/01/27 19:03:00;;;;;;;7.90;7.10;;;1.00;99.90;;;1.39;100.00;99814.09;10289122;28;20241;-64
2024/01/27 19:08:04;;;;;;;7.87;7.10;;;0.90;99.90;;;1.35;100.00;99813.72;10289994;28;20349;-64
2024/01/27 19:13:09;;;;;;;11.10;8.17;;;0.80;99.90;;;1.28;100.00;99808.59;10284592;28;20640;-64
2024/01/27 19:18:12;;;;;;;10.40;7.70;;;0.80;99.90;;;1.25;100.00;99813.28;10292946;28;20233;-64
2024/01/27 19:23:15;;;;;;;10.13;9.13;;;0.70;99.90;;;1.19;100.00;99809.09;10288956;28;20231;-64
2024/01/27 19:28:20;;;;;;;9.33;8.30;;;0.70;99.90;;;1.21;100.00;99811.09;10282705;28;20241;-64
2024/01/27 19:33:23;;;;;;;10.17;9.17;;;0.70;99.90;;;1.15;100.00;99815.38;10289657;28;20737;-64
2024/01/27 19:38:26;;;;;;;10.13;9.00;;;0.70;99.90;;;1.12;100.00;99813.38;10282705;28;20311;-64
2024/01/27 19:43:31;;;;;;;12.90;9.93;;;0.60;99.90;;;0.98;100.00;99810.75;10284418;28;20244;-64
2024/01/27 19:48:34;;;;;;;14.00;10.43;;;0.50;99.90;;;1.05;100.00;99804.84;10310644;28;20233;-64
2024/01/27 19:53:38;;;;;;;10.90;9.37;;;0.60;99.90;;;1.02;100.00;99802.84;10286036;28;20241;-64
2024/01/27 19:58:42;;;;;;;12.60;10.43;;;0.50;99.90;;;0.79;100.00;99797.44;10284175;28;20623;-64
2024/01/27 20:03:47;;;;;;;11.83;9.63;;;0.40;99.90;;;0.77;100.00;99787.91;10284492;28;20228;-64
2024/01/27 20:08:50;;;;;;;10.73;9.73;;;0.30;99.90;;;0.76;100.00;99791.13;10284116;28;20228;-64
2024/01/27 20:13:56;;;;;;;10.53;9.50;;;0.30;99.90;;;0.80;100.00;99794.25;10287150;28;20234;-64
2024/01/27 20:19:00;;;;;;;10.90;9.50;;;0.30;99.90;;;0.92;100.00;99794.88;10293435;28;21027;-64
2024/01/27 20:24:04;;;;;;;16.30;13.07;;;0.30;99.90;;;0.70;100.00;99805.47;10300132;28;20239;-65
2024/01/27 20:29:08;;;;;;;12.37;10.47;;;0.30;99.90;;;0.70;100.00;99803.84;10286792;28;20791;-64
2024/01/27 20:34:11;;;;;;;14.67;12.80;;;0.20;99.90;;;0.63;100.00;99801.25;10283186;28;20273;-64
2024/01/27 20:39:15;;;;;;;13.57;12.17;;;0.20;99.90;;;0.62;100.00;99800.34;10286800;28;20775;-64
2024/01/27 20:44:20;;;;;;;13.57;10.87;;;0.20;99.90;;;0.60;100.00;99803.38;10293902;28;20637;-64
2024/01/27 20:49:23;;;;;;;16.97;15.00;;;0.10;99.90;;;0.61;100.00;99805.22;10299098;28;20296;-64
2024/01/27 20:54:27;;;;;;;19.67;17.63;;;0.10;99.90;;;0.54;100.00;99798.47;10288828;28;20325;-64
2024/01/27 20:59:31;;;;;;;24.27;18.87;;;0.10;99.90;;;0.42;100.00;99797.81;10295980;28;20270;-64
2024/01/27 21:04:34;;;;;;;21.87;16.23;;;0.00;99.90;;;0.41;100.00;99785.97;10279584;28;20312;-64
2024/01/27 21:09:38;;;;;;;18.27;13.63;;;-0.10;99.90;;;0.45;100.00;99783.13;10300198;28;20649;-64